createdAt,value
2023-07-25T00:03:24.460Z,41.73
2023-07-25T00:08:26.400Z,41.68
2023-07-25T00:13:28.705Z,42.00
2023-07-25T00:18:30.918Z,41.91
2023-07-25T00:23:33.046Z,41.83
2023-07-25T00:28:35.078Z,41.98
2023-07-25T00:33:37.128Z,41.95
2023-07-25T00:38:39.214Z,42.00
2023-07-25T00:43:41.151Z,41.96
2023-07-25T00:48:46.151Z,41.92
2023-07-25T00:53:48.156Z,41.93
2023-07-25T00:58:50.269Z,41.72
2023-07-25T01:03:55.009Z,41.61
2023-07-25T01:08:57.959Z,41.75
2023-07-25T01:14:00.047Z,41.70
2023-07-25T01:19:02.437Z,41.88
2023-07-25T01:24:04.870Z,41.75
2023-07-25T01:29:06.932Z,42.02
2023-07-25T01:34:08.973Z,41.64
2023-07-25T01:39:11.262Z,41.74
2023-07-25T01:44:13.621Z,41.67
2023-07-25T01:49:15.663Z,41.66
2023-07-25T01:54:20.772Z,41.67
2023-07-25T01:59:22.905Z,41.62
2023-07-25T02:04:24.893Z,41.66
2023-07-25T02:09:26.945Z,41.54
2023-07-25T02:14:28.955Z,41.59
2023-07-25T02:19:31.342Z,41.64
2023-07-25T02:24:33.402Z,41.70
2023-07-25T02:29:35.386Z,41.55
2023-07-25T02:34:37.306Z,41.76
2023-07-25T02:39:39.322Z,41.81
2023-07-25T02:44:41.224Z,41.51
2023-07-25T02:49:43.364Z,41.53
2023-07-25T02:54:45.478Z,41.70
2023-07-25T02:59:47.419Z,41.37
2023-07-25T03:04:49.387Z,41.41
2023-07-25T03:09:51.522Z,41.43
2023-07-25T03:14:53.366Z,41.36
2023-07-25T03:19:55.393Z,41.39
2023-07-25T03:24:57.523Z,41.33
2023-07-25T03:29:59.747Z,41.40
2023-07-25T03:35:02.017Z,41.25
2023-07-25T03:40:04.393Z,41.19
2023-07-25T03:45:06.859Z,41.07
2023-07-25T03:50:09.034Z,41.03
2023-07-25T03:55:11.429Z,41.10
2023-07-25T04:00:14.092Z,40.87
2023-07-25T04:05:16.630Z,40.83
2023-07-25T04:10:18.747Z,40.82
2023-07-25T04:15:20.817Z,41.10
2023-07-25T04:20:22.635Z,40.88
2023-07-25T04:25:24.985Z,40.84
2023-07-25T04:30:27.201Z,41.07
2023-07-25T04:35:29.088Z,40.90
2023-07-25T04:40:31.023Z,40.89
2023-07-25T04:45:33.062Z,40.92
2023-07-25T04:50:35.144Z,40.86
2023-07-25T04:55:37.312Z,40.79
2023-07-25T05:00:39.535Z,40.95
2023-07-25T05:05:41.525Z,40.84
2023-07-25T05:10:43.448Z,40.80
2023-07-25T05:15:45.569Z,40.84
2023-07-25T05:20:47.633Z,40.84
2023-07-25T05:25:49.536Z,40.81
2023-07-25T05:30:51.437Z,40.94
2023-07-25T05:36:01.216Z,40.81
2023-07-25T05:41:04.116Z,40.81
2023-07-25T05:46:06.596Z,41.11
2023-07-25T05:51:08.489Z,40.92
2023-07-25T05:56:10.656Z,41.09
2023-07-25T06:01:16.409Z,40.90
2023-07-25T06:06:18.532Z,40.83
2023-07-25T06:11:22.660Z,41.04
2023-07-25T06:16:24.873Z,40.98
2023-07-25T06:21:27.577Z,40.62
2023-07-25T06:26:30.013Z,40.58
2023-07-25T06:31:32.756Z,40.69
2023-07-25T06:36:35.105Z,40.65
2023-07-25T06:41:37.403Z,40.91
2023-07-25T06:46:39.486Z,40.74
2023-07-25T06:51:41.732Z,40.86
2023-07-25T06:56:43.907Z,40.64
2023-07-25T07:01:46.047Z,39.75
2023-07-25T07:06:48.166Z,39.41
2023-07-25T07:11:50.159Z,39.62
2023-07-25T07:16:52.148Z,39.60
2023-07-25T07:21:54.204Z,39.81
2023-07-25T07:26:56.379Z,39.38
2023-07-25T07:31:58.370Z,39.40
2023-07-25T07:37:00.301Z,39.91
2023-07-25T07:42:02.993Z,40.65
2023-07-25T07:47:05.511Z,40.13
2023-07-25T07:52:15.392Z,39.93
2023-07-25T07:57:19.490Z,39.78
2023-07-25T08:02:21.749Z,39.75
2023-07-25T08:07:23.810Z,39.36
2023-07-25T08:12:26.092Z,39.23
2023-07-25T08:17:29.892Z,39.05
2023-07-25T08:22:31.946Z,38.63
2023-07-25T08:27:33.976Z,38.80
2023-07-25T08:32:36.298Z,38.62
2023-07-25T08:37:38.685Z,38.62
2023-07-25T08:42:46.841Z,38.11
2023-07-25T08:47:51.466Z,38.17
2023-07-25T08:52:57.059Z,38.30
2023-07-25T08:57:59.348Z,38.17
2023-07-25T09:03:01.533Z,37.96
2023-07-25T09:08:06.921Z,37.86
2023-07-25T09:13:09.127Z,37.57
2023-07-25T09:18:11.275Z,37.71
2023-07-25T09:23:21.547Z,37.86
2023-07-25T09:28:23.680Z,37.67
2023-07-25T09:33:29.010Z,37.45
2023-07-25T09:38:31.140Z,37.72
2023-07-25T09:43:33.188Z,37.47
2023-07-25T09:48:35.284Z,37.39
2023-07-25T09:53:37.591Z,37.61
2023-07-25T09:58:50.743Z,37.51
2023-07-25T10:04:02.271Z,37.51
2023-07-25T10:09:05.269Z,37.60
2023-07-25T10:14:10.342Z,37.78
2023-07-25T10:19:12.605Z,37.69
2023-07-25T10:24:14.874Z,37.91
2023-07-25T10:29:36.863Z,37.90
2023-07-25T10:34:46.676Z,38.00
2023-07-25T10:40:02.433Z,38.04
2023-07-25T10:45:04.901Z,37.80
2023-07-25T10:50:07.594Z,38.30
2023-07-25T10:55:11.968Z,39.58
2023-07-25T11:00:14.932Z,39.19
2023-07-25T11:05:19.834Z,38.91
2023-07-25T11:10:27.353Z,38.67
2023-07-25T11:15:46.578Z,38.58
2023-07-25T11:21:06.641Z,38.47
2023-07-25T11:26:09.024Z,38.62
2023-07-25T11:31:11.231Z,38.54
2023-07-25T11:36:13.523Z,38.48
2023-07-25T11:41:15.822Z,38.57
2023-07-25T11:46:19.552Z,38.90
2023-07-25T11:51:22.148Z,38.18
2023-07-25T11:56:24.930Z,38.03
2023-07-25T12:01:33.302Z,38.17
2023-07-25T12:06:35.969Z,38.04
2023-07-25T12:11:43.325Z,37.89
2023-07-25T12:16:46.733Z,37.90
2023-07-25T12:21:48.974Z,37.67
2023-07-25T12:26:56.203Z,37.72
2023-07-25T12:31:58.441Z,37.60
2023-07-25T12:37:02.297Z,37.42
2023-07-25T12:42:05.624Z,37.39
2023-07-25T12:47:09.175Z,37.63
2023-07-25T12:52:11.408Z,37.48
2023-07-25T12:57:13.492Z,37.25
2023-07-25T13:02:15.743Z,37.36
2023-07-25T13:07:18.078Z,37.28
2023-07-25T13:12:20.228Z,37.60
2023-07-25T13:17:22.360Z,37.72
2023-07-25T13:22:26.389Z,37.46
2023-07-25T13:27:30.570Z,37.94
2023-07-25T13:32:32.940Z,39.43
2023-07-25T13:37:35.174Z,40.23
2023-07-25T13:42:37.381Z,40.75
2023-07-25T13:47:39.711Z,41.03
2023-07-25T13:52:41.867Z,41.28
2023-07-25T13:57:44.568Z,41.65
2023-07-25T14:02:54.420Z,41.75
2023-07-25T14:07:56.710Z,41.82
2023-07-25T14:12:58.980Z,41.44
2023-07-25T14:18:01.921Z,41.95
2023-07-25T14:23:04.078Z,41.42
2023-07-25T14:28:06.205Z,41.45
2023-07-25T14:33:08.620Z,41.43
2023-07-25T14:38:12.511Z,41.14
2023-07-25T14:43:16.634Z,41.08
2023-07-25T14:48:19.005Z,41.02
2023-07-25T14:53:21.461Z,40.89
2023-07-25T14:58:23.907Z,41.09
2023-07-25T15:03:26.159Z,40.87
2023-07-25T15:08:28.212Z,40.96
2023-07-25T15:13:30.252Z,40.63
2023-07-25T15:18:32.321Z,40.49
2023-07-25T15:23:34.297Z,40.38
2023-07-25T15:28:36.195Z,40.19
2023-07-25T15:33:38.386Z,40.09
2023-07-25T15:38:40.405Z,39.83
2023-07-25T15:43:42.471Z,39.85
2023-07-25T15:48:46.825Z,39.60
2023-07-25T15:53:50.604Z,39.54
2023-07-25T15:58:52.472Z,39.23
2023-07-25T16:03:54.372Z,38.88
2023-07-25T16:08:57.506Z,38.78
2023-07-25T16:13:59.714Z,38.83
2023-07-25T16:19:02.161Z,38.87
2023-07-25T16:24:04.376Z,38.56
2023-07-25T16:29:06.358Z,38.45
2023-07-25T16:34:08.713Z,38.15
2023-07-25T16:39:11.516Z,37.98
2023-07-25T16:44:13.486Z,38.04
2023-07-25T16:49:15.866Z,38.00
2023-07-25T16:54:18.420Z,38.08
2023-07-25T16:59:20.527Z,37.61
2023-07-25T17:04:22.522Z,36.24
2023-07-25T17:09:24.726Z,35.95
2023-07-25T17:14:26.779Z,35.56
2023-07-25T17:19:28.955Z,36.20
2023-07-25T17:24:31.200Z,35.79
2023-07-25T17:29:33.291Z,35.82
2023-07-25T17:34:35.488Z,36.07
2023-07-25T17:39:37.700Z,35.99
2023-07-25T17:44:39.708Z,35.88
2023-07-25T17:49:41.728Z,35.87
2023-07-25T17:54:43.914Z,36.26
2023-07-25T17:59:45.833Z,35.96
2023-07-25T18:04:47.855Z,36.30
2023-07-25T18:09:49.823Z,36.17
2023-07-25T18:14:53.403Z,36.40
2023-07-25T18:19:55.929Z,36.22
2023-07-25T18:24:57.994Z,36.42
2023-07-25T18:30:00.048Z,36.16
2023-07-25T18:35:02.625Z,36.21
2023-07-25T18:40:05.077Z,35.87
2023-07-25T18:45:07.646Z,35.93
2023-07-25T18:50:09.924Z,35.89
2023-07-25T18:55:11.971Z,35.71
2023-07-25T19:00:14.558Z,35.74
2023-07-25T19:05:16.672Z,35.73
2023-07-25T19:10:19.178Z,35.67
2023-07-25T19:15:21.483Z,35.72
2023-07-25T19:20:24.204Z,35.67
2023-07-25T19:25:26.145Z,35.61
2023-07-25T19:30:28.153Z,35.60
2023-07-25T19:35:30.319Z,35.49
2023-07-25T19:40:34.286Z,35.60
2023-07-25T19:45:36.316Z,35.97
2023-07-25T19:50:46.545Z,36.24
2023-07-25T19:55:55.422Z,36.64
2023-07-25T20:00:59.002Z,36.80
2023-07-25T20:06:01.337Z,36.86
2023-07-25T20:11:04.872Z,36.73
2023-07-25T20:16:07.101Z,36.89
2023-07-25T20:21:11.521Z,36.81
2023-07-25T20:26:15.068Z,37.10
2023-07-25T20:31:17.675Z,37.30
2023-07-25T20:36:19.946Z,37.36
2023-07-25T20:41:22.136Z,37.40
2023-07-25T20:46:24.280Z,37.20
2023-07-25T20:51:26.867Z,36.99
2023-07-25T20:56:30.540Z,37.38
2023-07-25T21:01:32.871Z,37.30
2023-07-25T21:06:35.884Z,37.14
2023-07-25T21:11:37.856Z,37.15
2023-07-25T21:16:39.905Z,37.27
2023-07-25T21:21:41.925Z,37.22
2023-07-25T21:26:44.118Z,37.52
2023-07-25T21:31:46.058Z,37.41
2023-07-25T21:36:50.010Z,37.49
2023-07-25T21:41:52.257Z,37.41
2023-07-25T21:46:54.651Z,37.74
2023-07-25T21:51:56.434Z,37.85
2023-07-25T21:56:58.472Z,37.30
2023-07-25T22:02:00.410Z,37.82
2023-07-25T22:07:03.487Z,37.61
2023-07-25T22:12:07.234Z,37.53
2023-07-25T22:17:09.129Z,37.59
2023-07-25T22:22:11.241Z,37.71
2023-07-25T22:27:13.283Z,37.88
2023-07-25T22:32:15.168Z,37.64
2023-07-25T22:37:17.370Z,37.48
2023-07-25T22:42:19.376Z,37.83
2023-07-25T22:47:21.473Z,37.78
2023-07-25T22:52:24.989Z,37.88
2023-07-25T22:57:27.020Z,37.88
2023-07-25T23:02:29.939Z,37.65
2023-07-25T23:07:32.095Z,37.79
2023-07-25T23:12:34.149Z,37.85
2023-07-25T23:17:36.364Z,37.76
2023-07-25T23:22:38.379Z,37.94
2023-07-25T23:27:40.444Z,37.90
2023-07-25T23:32:42.562Z,37.83
2023-07-25T23:37:44.582Z,37.79
2023-07-25T23:42:46.624Z,37.79
2023-07-25T23:47:48.601Z,37.94
2023-07-25T23:52:50.697Z,38.14
2023-07-25T23:57:52.928Z,38.16
